Time;durP1;ratioP1;P1;durP2;ratioP2;P2;SDS_P1;SDS_P2;PMS_P1;PMS_P2;Temp;Humidity;BMP_temperature;BMP_pressure;BME280_temperature;BME280_humidity;BME280_pressure;Samples;Min_cycle;Max_cycle;Signal;HPM_P1;HPM_P2
2021/03/05 00:00:37;;;;;;;18.13;11.00;;;4.50;90.50;;;;;;4612589;30;20047;-83
2021/03/05 00:03:04;;;;;;;20.23;10.30;;;4.50;90.60;;;;;;4616442;30;20061;-82
2021/03/05 00:05:37;;;;;;;20.63;11.27;;;4.50;90.70;;;;;;4617131;30;20054;-83
2021/03/05 00:08:07;;;;;;;19.73;11.05;;;4.50;90.70;;;;;;4644134;30;20054;-83
2021/03/05 00:10:36;;;;;;;16.53;10.23;;;4.50;90.70;;;;;;4643859;30;20063;-83
2021/03/05 00:13:03;;;;;;;17.10;10.40;;;4.50;90.80;;;;;;4630351;30;20408;-83
2021/03/05 00:15:32;;;;;;;20.60;11.77;;;4.40;90.80;;;;;;4643672;30;20423;-82
2021/03/05 00:17:59;;;;;;;18.60;10.80;;;4.40;90.80;;;;;;4630401;30;20399;-83
2021/03/05 00:20:28;;;;;;;24.03;11.77;;;4.40;90.80;;;;;;4629058;30;20062;-83
2021/03/05 00:22:56;;;;;;;20.30;11.63;;;4.30;90.80;;;;;;4629060;30;20050;-83
2021/03/05 00:25:23;;;;;;;19.13;11.20;;;4.30;91.20;;;;;;4615207;30;20408;-83
2021/03/05 00:27:49;;;;;;;23.03;11.97;;;4.30;90.90;;;;;;4629874;30;20810;-83
2021/03/05 00:30:19;;;;;;;20.10;10.57;;;4.20;90.90;;;;;;4630579;30;20069;-82
2021/03/05 00:32:46;;;;;;;16.60;10.20;;;4.20;90.90;;;;;;4629847;30;20077;-83
2021/03/05 00:35:15;;;;;;;19.93;11.40;;;4.20;90.90;;;;;;4616559;30;21230;-83
2021/03/05 00:37:42;;;;;;;17.27;9.70;;;4.20;90.90;;;;;;4627328;30;20058;-82
2021/03/05 00:40:12;;;;;;;15.17;9.57;;;4.30;90.80;;;;;;4630838;30;20054;-83
2021/03/05 00:42:41;;;;;;;17.13;10.00;;;4.30;90.80;;;;;;4621875;30;20055;-83
2021/03/05 00:45:10;;;;;;;17.77;10.23;;;4.30;90.80;;;;;;4606758;30;20047;-83
2021/03/05 00:47:40;;;;;;;15.87;9.37;;;4.30;90.70;;;;;;4627040;30;20062;-83
2021/03/05 00:50:08;;;;;;;15.17;8.07;;;4.20;90.50;;;;;;4616669;30;20049;-83
2021/03/05 00:52:35;;;;;;;14.33;8.07;;;4.20;90.50;;;;;;4627448;30;20484;-83
2021/03/05 00:55:04;;;;;;;19.13;9.27;;;4.20;90.50;;;;;;4630016;30;20407;-84
2021/03/05 00:57:31;;;;;;;14.80;9.30;;;4.10;90.30;;;;;;4659521;30;20046;-84
2021/03/05 00:59:57;;;;;;;13.83;8.80;;;4.00;90.30;;;;;;4630538;30;20070;-84
2021/03/05 01:02:24;;;;;;;18.43;9.83;;;3.90;90.30;;;;;;4603533;30;20054;-83
2021/03/05 01:04:53;;;;;;;15.57;8.23;;;3.80;90.40;;;;;;4602821;30;20057;-83
2021/03/05 01:07:20;;;;;;;13.30;8.43;;;3.60;90.50;;;;;;4627669;30;20061;-83
2021/03/05 01:09:47;;;;;;;11.37;7.00;;;3.50;90.60;;;;;;4629991;30;20558;-84
2021/03/05 01:12:14;;;;;;;13.50;8.43;;;3.40;90.70;;;;;;4644525;30;20045;-83
2021/03/05 01:14:40;;;;;;;14.33;8.80;;;3.30;90.80;;;;;;4602173;30;20423;-82
2021/03/05 01:17:07;;;;;;;11.53;6.93;;;3.30;90.90;;;;;;4619510;30;20057;-82
2021/03/05 01:19:33;;;;;;;14.03;8.57;;;3.20;91.00;;;;;;4614206;30;20054;-83
2021/03/05 01:22:00;;;;;;;14.50;7.60;;;3.10;91.10;;;;;;4603330;30;20053;-82
2021/03/05 01:24:27;;;;;;;12.33;7.13;;;3.00;91.10;;;;;;4635024;30;20054;-83
2021/03/05 01:26:53;;;;;;;12.10;8.33;;;3.00;91.20;;;;;;4623308;30;20042;-83
2021/03/05 01:29:20;;;;;;;11.90;6.60;;;2.90;91.30;;;;;;4629670;30;20049;-82
2021/03/05 01:31:49;;;;;;;11.50;6.83;;;2.90;91.40;;;;;;4608384;30;20059;-82
2021/03/05 01:34:16;;;;;;;12.47;7.57;;;2.80;91.40;;;;;;4649283;30;20511;-83
2021/03/05 01:36:42;;;;;;;13.47;8.00;;;2.70;91.40;;;;;;4635272;30;20050;-83
2021/03/05 01:39:09;;;;;;;11.50;6.73;;;2.70;91.60;;;;;;4649617;30;20708;-82
2021/03/05 01:41:37;;;;;;;13.23;7.30;;;2.60;91.60;;;;;;4628763;30;20043;-82
2021/03/05 01:44:10;;;;;;;13.43;6.80;;;2.50;91.60;;;;;;4628326;30;20639;-82
2021/03/05 01:46:37;;;;;;;12.47;7.30;;;2.50;91.80;;;;;;4639010;30;20384;-82
2021/03/05 01:49:04;;;;;;;16.23;9.40;;;2.40;91.90;;;;;;4641948;30;20073;-81
2021/03/05 01:51:36;;;;;;;14.53;8.67;;;2.40;92.00;;;;;;4643278;30;20061;-82
2021/03/05 01:54:04;;;;;;;24.57;8.73;;;2.30;92.00;;;;;;4620354;30;20050;-82
2021/03/05 01:56:45;;;;;;;17.60;10.60;;;2.20;92.10;;;;;;4622435;30;20054;-83
2021/03/05 01:59:16;;;;;;;15.77;9.50;;;2.20;92.30;;;;;;4648259;30;20080;-83
2021/03/05 02:01:43;;;;;;;12.57;8.20;;;2.20;92.40;;;;;;4637284;30;20844;-83
2021/03/05 02:04:12;;;;;;;16.13;9.40;;;2.10;92.60;;;;;;4607944;30;20042;-83
2021/03/05 02:06:39;;;;;;;25.63;11.57;;;2.10;92.70;;;;;;4635435;30;20054;-83
2021/03/05 02:09:07;;;;;;;25.03;12.33;;;2.00;93.00;;;;;;4618508;30;20050;-83
2021/03/05 02:11:34;;;;;;;19.37;11.37;;;1.90;93.60;;;;;;4634574;30;20059;-82
2021/03/05 02:14:05;;;;;;;23.93;11.90;;;1.90;93.40;;;;;;4620426;30;20048;-83
2021/03/05 02:17:36;;;;;;;19.63;12.50;;;1.90;93.40;;;;;;4621657;30;20042;-82
2021/03/05 02:20:16;;;;;;;20.37;11.30;;;1.80;93.60;;;;;;4611728;31;20059;-82
2021/03/05 02:22:54;;;;;;;17.40;9.90;;;1.80;93.70;;;;;;4598531;31;20039;-82
2021/03/05 02:25:21;;;;;;;20.90;12.23;;;1.80;93.80;;;;;;4641795;30;20050;-82
2021/03/05 02:27:59;;;;;;;20.37;10.87;;;1.70;93.90;;;;;;4631729;30;20069;-82
2021/03/05 02:30:57;;;;;;;23.93;12.90;;;1.70;94.00;;;;;;4647072;30;20046;-82
2021/03/05 02:33:29;;;;;;;31.10;14.30;;;1.70;94.20;;;;;;4617130;30;20057;-82
2021/03/05 02:35:57;;;;;;;23.98;14.40;;;1.60;94.30;;;;;;4630230;30;20046;-82
2021/03/05 02:38:32;;;;;;;21.57;11.73;;;1.60;94.40;;;;;;4644784;30;20062;-82
2021/03/05 02:41:00;;;;;;;26.90;12.57;;;1.60;94.50;;;;;;4630476;30;20046;-82
2021/03/05 02:43:29;;;;;;;28.73;12.90;;;1.50;94.50;;;;;;4644203;30;20054;-82
2021/03/05 02:46:03;;;;;;;22.97;13.67;;;1.50;94.50;;;;;;4632295;30;20049;-83
2021/03/05 02:48:46;;;;;;;25.10;12.63;;;1.50;94.50;;;;;;4659215;30;20058;-82
2021/03/05 02:51:16;;;;;;;25.40;12.93;;;1.50;94.70;;;;;;4645873;30;20058;-82
2021/03/05 02:53:44;;;;;;;28.43;14.43;;;1.40;94.60;;;;;;4644903;30;20062;-82
2021/03/05 02:56:16;;;;;;;20.63;11.57;;;1.40;94.80;;;;;;4618273;30;20050;-82
2021/03/05 02:58:47;;;;;;;17.70;10.65;;;1.40;94.80;;;;;;4644041;30;20070;-83
2021/03/05 03:01:15;;;;;;;24.73;12.80;;;1.30;94.80;;;;;;4618113;30;20441;-82
2021/03/05 03:03:42;;;;;;;28.80;13.97;;;1.30;94.80;;;;;;4630551;30;20050;-82
2021/03/05 03:06:15;;;;;;;25.30;12.57;;;1.30;94.90;;;;;;4618408;30;20047;-81
2021/03/05 03:08:43;;;;;;;24.08;10.93;;;1.20;94.90;;;;;;4631530;30;20389;-82
2021/03/05 03:11:10;;;;;;;17.20;10.50;;;1.20;94.90;;;;;;4618496;30;20053;-82
2021/03/05 03:13:37;;;;;;;19.97;11.50;;;1.20;94.90;;;;;;4631435;30;20071;-82
2021/03/05 03:16:06;;;;;;;27.47;13.07;;;1.20;94.90;;;;;;4617094;30;20062;-82
2021/03/05 03:18:36;;;;;;;23.60;11.20;;;1.10;95.00;;;;;;4645721;30;20050;-82
2021/03/05 03:21:04;;;;;;;21.57;11.57;;;1.10;95.00;;;;;;4632026;30;20046;-82
2021/03/05 03:23:32;;;;;;;16.60;9.57;;;1.00;94.90;;;;;;4630454;30;20057;-81
2021/03/05 03:26:00;;;;;;;19.80;10.97;;;1.00;94.90;;;;;;4618311;30;20068;-82
2021/03/05 03:28:27;;;;;;;22.90;10.63;;;1.00;94.90;;;;;;4659337;30;20202;-81
2021/03/05 03:30:54;;;;;;;17.83;9.60;;;1.00;94.90;;;;;;4631993;30;20046;-81
2021/03/05 03:33:21;;;;;;;20.87;9.30;;;0.90;94.90;;;;;;4629358;30;20054;-82
2021/03/05 03:35:48;;;;;;;16.43;9.77;;;0.90;94.80;;;;;;4630570;30;20062;-83
2021/03/05 03:38:16;;;;;;;16.70;8.73;;;0.90;94.80;;;;;;4615892;30;20054;-83
2021/03/05 03:40:43;;;;;;;19.77;10.30;;;0.80;94.80;;;;;;4618318;30;20042;-82
2021/03/05 03:43:10;;;;;;;18.30;9.10;;;0.80;94.80;;;;;;4613901;30;20067;-83
2021/03/05 03:45:39;;;;;;;17.27;7.57;;;0.80;94.80;;;;;;4614625;30;20055;-82
2021/03/05 03:48:08;;;;;;;16.97;8.43;;;0.80;94.80;;;;;;4629819;30;20392;-82
2021/03/05 03:51:03;;;;;;;16.63;8.13;;;0.70;94.70;;;;;;4616737;30;20061;-82
2021/03/05 03:53:30;;;;;;;16.30;7.87;;;0.70;94.70;;;;;;4622793;30;20503;-82
2021/03/05 03:55:58;;;;;;;14.60;8.00;;;0.70;94.70;;;;;;4612995;30;20051;-82
2021/03/05 03:58:26;;;;;;;15.40;7.70;;;0.60;94.70;;;;;;4630900;30;20057;-82
2021/03/05 04:00:57;;;;;;;16.00;8.17;;;0.60;94.70;;;;;;4631853;30;20062;-82
2021/03/05 04:03:31;;;;;;;14.57;7.83;;;0.50;94.60;;;;;;4643883;30;20046;-82
2021/03/05 04:05:58;;;;;;;13.30;7.07;;;0.50;94.60;;;;;;4631306;30;20043;-83
2021/03/05 04:08:26;;;;;;;13.77;7.10;;;0.50;94.60;;;;;;4626546;30;20054;-82
2021/03/05 04:10:53;;;;;;;14.63;8.17;;;0.40;94.60;;;;;;4645297;30;20042;-81
2021/03/05 04:13:20;;;;;;;13.60;7.63;;;0.40;94.60;;;;;;4630451;30;20587;-82
2021/03/05 04:15:47;;;;;;;15.70;8.53;;;0.40;94.50;;;;;;4617305;30;20042;-82
2021/03/05 04:18:14;;;;;;;17.13;8.10;;;0.30;94.50;;;;;;4616909;30;20419;-82
2021/03/05 04:20:42;;;;;;;16.40;8.67;;;0.30;94.50;;;;;;4616003;30;20051;-82
2021/03/05 04:23:09;;;;;;;14.37;7.53;;;0.30;94.50;;;;;;4630416;30;20038;-81
2021/03/05 04:25:36;;;;;;;17.93;9.23;;;0.30;94.50;;;;;;4630800;30;20049;-81
2021/03/05 04:28:03;;;;;;;16.53;8.20;;;0.30;94.50;;;;;;4658390;30;20054;-79
2021/03/05 04:30:29;;;;;;;17.03;6.60;;;0.20;94.50;;;;;;4631434;30;20054;-80
2021/03/05 04:32:56;;;;;;;18.87;7.63;;;0.20;94.50;;;;;;4603359;30;20054;-80
2021/03/05 04:35:22;;;;;;;15.77;7.77;;;0.20;94.50;;;;;;4625110;30;20058;-84
2021/03/05 04:37:49;;;;;;;14.97;7.87;;;0.20;94.50;;;;;;4630221;30;20072;-82
2021/03/05 04:40:16;;;;;;;21.50;8.63;;;0.20;94.50;;;;;;4616788;30;20053;-83
2021/03/05 04:42:42;;;;;;;15.20;8.13;;;0.20;94.60;;;;;;4635643;30;20054;-84
2021/03/05 04:45:09;;;;;;;23.93;13.17;;;0.10;94.50;;;;;;4602626;30;20043;-84
2021/03/05 04:47:36;;;;;;;28.13;14.43;;;0.10;94.50;;;;;;4628504;30;20046;-84
2021/03/05 04:50:04;;;;;;;23.97;13.17;;;0.10;94.60;;;;;;4641043;30;20519;-85
2021/03/05 04:52:32;;;;;;;22.07;10.53;;;0.10;94.60;;;;;;4635359;30;20058;-82
2021/03/05 04:54:58;;;;;;;23.40;9.93;;;0.10;94.60;;;;;;4616533;30;20051;-82
2021/03/05 04:57:25;;;;;;;19.73;9.40;;;0.10;94.60;;;;;;4627769;30;20061;-81
2021/03/05 04:59:52;;;;;;;19.60;8.07;;;0.10;94.70;;;;;;4615784;30;20492;-81
2021/03/05 05:02:19;;;;;;;21.33;8.70;;;0.10;94.70;;;;;;4614296;30;20054;-81
2021/03/05 05:04:45;;;;;;;18.70;7.77;;;0.00;94.70;;;;;;4598820;30;20051;-81
2021/03/05 05:07:12;;;;;;;19.27;7.97;;;0.00;94.70;;;;;;4602649;30;20043;-81
2021/03/05 05:09:38;;;;;;;14.20;7.10;;;0.00;94.70;;;;;;4615891;30;20062;-81
2021/03/05 05:12:05;;;;;;;17.57;9.03;;;0.00;94.70;;;;;;4609382;30;20522;-82
2021/03/05 05:14:32;;;;;;;22.47;9.80;;;-0.10;94.70;;;;;;4601403;30;20054;-81
2021/03/05 05:16:58;;;;;;;13.53;7.37;;;-0.10;94.70;;;;;;4644074;30;20053;-81
2021/03/05 05:19:24;;;;;;;17.43;7.70;;;-0.10;94.70;;;;;;4615242;30;20071;-81
2021/03/05 05:21:51;;;;;;;14.37;6.60;;;-0.10;94.70;;;;;;4600822;30;20061;-81
2021/03/05 05:24:18;;;;;;;16.13;7.37;;;-0.10;94.70;;;;;;4598399;30;20054;-80
2021/03/05 05:26:44;;;;;;;19.10;9.37;;;-0.10;94.70;;;;;;4612763;30;20046;-81
2021/03/05 05:29:11;;;;;;;15.57;6.90;;;-0.20;94.70;;;;;;4640242;30;20042;-82
2021/03/05 05:31:37;;;;;;;14.87;6.23;;;-0.20;94.60;;;;;;4611826;30;20393;-81
2021/03/05 05:34:04;;;;;;;20.67;7.67;;;-0.20;94.60;;;;;;4611413;30;20518;-80
2021/03/05 05:36:30;;;;;;;18.60;6.63;;;-0.20;94.60;;;;;;4598002;30;20380;-81
2021/03/05 05:38:57;;;;;;;11.73;6.43;;;-0.20;94.60;;;;;;4597924;30;20050;-80
2021/03/05 05:41:24;;;;;;;10.70;5.97;;;-0.20;94.60;;;;;;4627380;30;20054;-81
2021/03/05 05:43:52;;;;;;;14.47;6.53;;;-0.20;94.50;;;;;;4626885;30;20767;-80
2021/03/05 05:46:21;;;;;;;14.77;6.60;;;-0.20;94.50;;;;;;4616810;30;20445;-81
2021/03/05 05:48:49;;;;;;;10.50;5.67;;;-0.30;94.50;;;;;;4625352;30;20061;-80
2021/03/05 05:51:24;;;;;;;9.53;4.93;;;-0.30;94.50;;;;;;4602106;30;20403;-80
2021/03/05 05:53:52;;;;;;;13.87;5.20;;;-0.30;94.40;;;;;;4642911;30;20396;-80
2021/03/05 05:56:19;;;;;;;12.57;5.77;;;-0.30;94.40;;;;;;4601686;30;20412;-80
2021/03/05 05:58:47;;;;;;;23.13;8.13;;;-0.30;94.40;;;;;;4624316;30;20070;-80
2021/03/05 06:01:16;;;;;;;14.07;6.83;;;-0.40;94.40;;;;;;4625906;30;20062;-80
2021/03/05 06:03:43;;;;;;;17.80;7.73;;;-0.40;94.40;;;;;;4615810;30;20062;-80
2021/03/05 06:06:13;;;;;;;13.60;5.97;;;-0.40;94.40;;;;;;4628437;30;20415;-80
2021/03/05 06:08:39;;;;;;;14.17;5.63;;;-0.40;94.30;;;;;;4641837;30;20058;-80
2021/03/05 06:11:06;;;;;;;11.90;6.17;;;-0.40;94.30;;;;;;4632199;30;20066;-80
2021/03/05 06:13:32;;;;;;;13.77;5.93;;;-0.40;94.30;;;;;;4614159;30;20046;-81
2021/03/05 06:16:17;;;;;;;10.50;4.70;;;-0.40;94.20;;;;;;4603524;30;20054;-80
2021/03/05 06:18:45;;;;;;;14.10;4.83;;;-0.40;94.20;;;;;;4628458;30;20503;-80
2021/03/05 06:21:12;;;;;;;12.57;5.63;;;-0.40;94.10;;;;;;4640165;30;20062;-81
2021/03/05 06:24:00;;;;;;;12.10;5.40;;;-0.40;94.10;;;;;;4640803;30;20050;-80
2021/03/05 06:26:27;;;;;;;9.87;4.93;;;-0.40;94.00;;;;;;4626825;30;20045;-80
2021/03/05 06:29:05;;;;;;;12.97;4.73;;;-0.40;94.00;;;;;;4633305;30;20046;-80
2021/03/05 06:31:33;;;;;;;10.60;4.80;;;-0.30;93.90;;;;;;4631111;30;20909;-80
2021/03/05 06:34:04;;;;;;;10.03;4.03;;;-0.30;93.80;;;;;;4631037;30;20098;-80
2021/03/05 06:36:31;;;;;;;15.93;4.73;;;-0.20;93.70;;;;;;4643183;30;20038;-80
2021/03/05 06:38:58;;;;;;;10.57;4.10;;;-0.20;93.60;;;;;;4613808;30;20034;-80
2021/03/05 06:41:30;;;;;;;11.00;4.37;;;-0.10;93.60;;;;;;4660617;30;20058;-80
2021/03/05 06:44:01;;;;;;;7.57;3.27;;;-0.10;93.40;;;;;;4632490;30;20054;-80
2021/03/05 06:46:43;;;;;;;8.53;3.93;;;0.00;93.30;;;;;;4645856;30;20610;-80
2021/03/05 06:49:11;;;;;;;10.60;3.40;;;0.10;93.00;;;;;;4616499;30;20058;-81
2021/03/05 06:51:50;;;;;;;16.43;7.03;;;0.10;92.90;;;;;;4629302;30;20058;-80
2021/03/05 06:54:16;;;;;;;27.77;15.70;;;0.20;92.70;;;;;;4624292;30;20062;-79
2021/03/05 06:56:48;;;;;;;14.40;6.30;;;0.30;92.70;;;;;;4643931;30;20515;-80
2021/03/05 06:59:20;;;;;;;8.77;4.23;;;0.40;92.50;;;;;;4643843;30;20038;-88
2021/03/05 07:01:49;;;;;;;11.98;3.13;;;0.50;92.40;;;;;;4633185;30;20038;-81
2021/03/05 07:04:26;;;;;;;10.53;4.33;;;0.60;92.30;;;;;;4644168;30;20050;-79
2021/03/05 07:07:00;;;;;;;6.90;3.00;;;0.60;92.00;;;;;;4631705;30;20046;-82
2021/03/05 07:09:47;;;;;;;7.13;3.90;;;0.70;91.90;;;;;;4644666;30;20047;-82
2021/03/05 07:12:16;;;;;;;10.60;3.33;;;0.80;91.80;;;;;;4618429;30;20062;-82
2021/03/05 07:14:48;;;;;;;7.67;3.27;;;0.90;91.50;;;;;;4644470;30;20054;-82
2021/03/05 07:17:17;;;;;;;8.95;2.72;;;1.00;91.40;;;;;;4643689;30;20416;-82
2021/03/05 07:19:44;;;;;;;11.63;3.43;;;1.00;91.40;;;;;;4605726;30;20057;-82
2021/03/05 07:22:13;;;;;;;10.00;2.67;;;1.10;91.30;;;;;;4630432;30;20515;-82
2021/03/05 07:24:40;;;;;;;8.63;3.00;;;1.20;91.10;;;;;;4615824;30;20065;-82
2021/03/05 07:27:08;;;;;;;7.93;2.70;;;1.30;91.00;;;;;;4631668;30;20613;-82
2021/03/05 07:29:38;;;;;;;8.47;2.47;;;1.40;90.90;;;;;;4630417;30;20507;-82
2021/03/05 07:32:09;;;;;;;8.70;3.37;;;1.50;90.80;;;;;;4625390;30;20066;-82
2021/03/05 07:34:46;;;;;;;8.67;3.37;;;1.60;90.80;;;;;;4644818;30;20400;-82
2021/03/05 07:37:13;;;;;;;7.27;3.47;;;1.70;90.50;;;;;;4620471;30;20046;-83
2021/03/05 07:39:44;;;;;;;6.30;2.80;;;1.80;90.10;;;;;;4642918;30;20062;-82
2021/03/05 07:42:11;;;;;;;9.53;3.40;;;1.90;90.10;;;;;;4628000;30;20077;-83
2021/03/05 07:44:47;;;;;;;6.83;2.67;;;1.90;89.80;;;;;;4632502;30;20058;-83
2021/03/05 07:47:15;;;;;;;6.03;3.03;;;2.00;89.60;;;;;;4630600;30;20050;-83
2021/03/05 07:49:42;;;;;;;9.43;3.40;;;2.10;89.20;;;;;;4628820;30;20043;-83
2021/03/05 07:52:09;;;;;;;10.20;2.87;;;2.20;88.80;;;;;;4627751;30;20076;-81
2021/03/05 07:54:39;;;;;;;7.07;2.93;;;2.20;88.40;;;;;;4602616;30;20531;-82
2021/03/05 07:57:07;;;;;;;8.70;3.07;;;2.30;88.00;;;;;;4643590;30;20054;-82
2021/03/05 07:59:42;;;;;;;8.00;2.80;;;2.40;87.80;;;;;;4629985;30;20038;-82
2021/03/05 08:02:09;;;;;;;7.50;2.27;;;2.50;87.90;;;;;;4659245;30;20057;-82
2021/03/05 08:04:52;;;;;;;6.23;2.40;;;2.60;88.20;;;;;;4617073;30;20054;-82
2021/03/05 08:07:27;;;;;;;10.50;2.03;;;2.70;87.40;;;;;;4626587;30;20051;-82
2021/03/05 08:09:56;;;;;;;5.57;1.77;;;2.80;87.10;;;;;;4627542;30;20058;-82
2021/03/05 08:12:33;;;;;;;7.23;2.00;;;2.90;86.80;;;;;;4614951;30;20066;-82
2021/03/05 08:15:12;;;;;;;6.90;2.13;;;3.10;86.50;;;;;;4629547;30;20059;-82
2021/03/05 08:17:46;;;;;;;4.13;1.13;;;3.20;85.90;;;;;;4633579;30;20046;-82
2021/03/05 08:20:19;;;;;;;11.37;2.00;;;3.30;85.60;;;;;;4642573;30;20053;-82
2021/03/05 08:22:58;;;;;;;7.23;1.30;;;3.40;84.30;;;;;;4644264;30;20077;-81
2021/03/05 08:25:27;;;;;;;3.27;0.90;;;3.50;83.90;;;;;;4629873;30;20377;-82
2021/03/05 08:27:55;;;;;;;7.27;1.67;;;3.50;83.00;;;;;;4616465;30;20050;-82
2021/03/05 08:30:34;;;;;;;7.40;1.30;;;3.60;82.60;;;;;;4630532;30;20500;-82
2021/03/05 08:33:20;;;;;;;6.53;1.20;;;3.70;80.20;;;;;;4638741;30;20058;-81
2021/03/05 08:35:48;;;;;;;8.43;1.50;;;3.60;80.30;;;;;;4640310;30;20700;-81
2021/03/05 08:38:20;;;;;;;7.53;1.60;;;3.60;80.10;;;;;;4627200;30;20062;-78
2021/03/05 08:40:50;;;;;;;4.53;0.93;;;3.70;79.20;;;;;;4639948;30;20050;-81
2021/03/05 08:43:19;;;;;;;6.10;1.17;;;3.70;79.60;;;;;;4613230;30;20054;-85
2021/03/05 08:45:56;;;;;;;10.47;2.53;;;3.80;77.80;;;;;;4628063;30;20050;-81
2021/03/05 08:48:26;;;;;;;5.03;0.93;;;3.80;77.40;;;;;;4654706;30;20053;-82
2021/03/05 08:51:04;;;;;;;5.67;1.03;;;3.90;75.50;;;;;;4619980;30;20057;-82
2021/03/05 08:53:40;;;;;;;5.50;0.90;;;3.80;74.60;;;;;;4626643;30;20050;-82
2021/03/05 08:56:08;;;;;;;8.13;1.33;;;3.90;74.60;;;;;;4627592;30;20483;-82
2021/03/05 08:58:35;;;;;;;6.63;0.80;;;3.90;74.70;;;;;;4615930;30;20054;-82
2021/03/05 09:01:03;;;;;;;7.30;0.87;;;4.00;74.00;;;;;;4630343;30;20085;-82
2021/03/05 09:03:32;;;;;;;3.37;0.70;;;4.10;72.00;;;;;;4602093;30;20043;-84
2021/03/05 09:05:59;;;;;;;4.07;0.77;;;4.20;72.00;;;;;;4617108;30;20046;-83
2021/03/05 09:08:26;;;;;;;7.97;3.27;;;4.30;71.80;;;;;;4601238;30;20058;-82
2021/03/05 09:11:03;;;;;;;5.07;1.70;;;4.30;71.30;;;;;;4644026;30;20066;-82
2021/03/05 09:13:34;;;;;;;8.03;1.67;;;4.50;71.00;;;;;;4627630;30;20054;-82
2021/03/05 09:16:03;;;;;;;7.60;1.00;;;4.50;70.40;;;;;;4626116;30;20057;-83
2021/03/05 09:18:36;;;;;;;6.60;0.67;;;4.60;70.20;;;;;;4614340;30;20050;-82
2021/03/05 09:21:09;;;;;;;3.22;0.68;;;4.70;68.90;;;;;;4626466;30;20043;-83
2021/03/05 09:23:36;;;;;;;7.57;0.90;;;4.70;67.90;;;;;;4642070;30;20053;-83
2021/03/05 09:26:05;;;;;;;4.27;0.53;;;4.80;68.60;;;;;;4640278;30;20042;-84
2021/03/05 09:29:02;;;;;;;3.37;0.50;;;4.90;67.70;;;;;;4642472;30;20043;-83
2021/03/05 09:31:30;;;;;;;2.57;0.50;;;5.00;67.10;;;;;;4631278;30;20050;-83
2021/03/05 09:34:00;;;;;;;4.93;0.70;;;5.00;65.20;;;;;;4628221;30;20614;-84
2021/03/05 09:36:27;;;;;;;5.07;0.70;;;5.10;64.10;;;;;;4629179;30;20050;-83
2021/03/05 09:39:00;;;;;;;5.50;0.93;;;5.10;62.80;;;;;;4615778;30;20781;-81
2021/03/05 09:41:29;;;;;;;3.33;0.60;;;5.10;63.10;;;;;;4631694;30;20609;-83
2021/03/05 09:44:10;;;;;;;6.27;0.60;;;5.20;62.30;;;;;;4617812;30;20050;-83
2021/03/05 09:46:41;;;;;;;4.67;0.63;;;5.30;62.70;;;;;;4633940;30;20038;-83
2021/03/05 09:49:21;;;;;;;5.03;0.50;;;5.40;61.60;;;;;;4631335;30;20045;-84
2021/03/05 09:51:48;;;;;;;2.80;0.37;;;5.40;59.70;;;;;;4633279;30;20046;-82
2021/03/05 09:54:15;;;;;;;2.93;0.90;;;5.50;60.50;;;;;;4618549;30;20045;-83
2021/03/05 09:56:44;;;;;;;2.43;0.47;;;5.60;59.50;;;;;;4639819;30;20042;-83
2021/03/05 09:59:12;;;;;;;6.13;0.40;;;5.60;57.90;;;;;;4635062;30;20305;-83
2021/03/05 10:01:43;;;;;;;3.50;0.50;;;5.60;56.30;;;;;;4633171;30;20054;-79
2021/03/05 10:04:16;;;;;;;3.67;0.63;;;5.60;56.00;;;;;;4644947;30;20058;-87
2021/03/05 10:06:53;;;;;;;3.72;0.60;;;5.70;56.50;;;;;;4630180;30;20058;-82
2021/03/05 10:09:21;;;;;;;2.83;0.47;;;5.70;56.30;;;;;;4628869;30;20046;-81
2021/03/05 10:11:48;;;;;;;5.65;0.43;;;5.80;57.10;;;;;;4632539;30;20058;-82
2021/03/05 10:14:25;;;;;;;4.23;0.53;;;5.90;56.80;;;;;;4632137;30;20054;-81
2021/03/05 10:16:52;;;;;;;2.73;0.30;;;6.10;56.20;;;;;;4626709;30;20050;-82
2021/03/05 10:19:24;;;;;;;6.13;0.50;;;6.20;55.30;;;;;;4616698;30;20055;-82
2021/03/05 10:21:54;;;;;;;5.37;0.50;;;6.40;54.80;;;;;;4632450;30;20419;-81
2021/03/05 10:24:28;;;;;;;3.08;0.40;;;6.50;54.30;;;;;;4632790;30;20038;-81
2021/03/05 10:29:49;;;;;;;4.25;0.77;;;6.90;53.70;;;;;;4632549;30;20061;-81
2021/03/05 10:32:17;;;;;;;3.80;0.60;;;7.40;53.90;;;;;;4619024;30;20050;-82
2021/03/05 10:34:46;;;;;;;2.58;0.30;;;7.70;48.80;;;;;;4645944;30;20813;-81
2021/03/05 10:37:14;;;;;;;2.17;0.32;;;7.90;46.00;;;;;;4614865;30;20499;-82
2021/03/05 10:39:49;;;;;;;2.08;0.30;;;8.20;46.40;;;;;;4632429;30;20054;-89
2021/03/05 10:42:19;;;;;;;2.58;0.28;;;8.50;45.70;;;;;;4638805;30;20483;-82
2021/03/05 10:44:49;;;;;;;1.92;0.25;;;8.70;43.00;;;;;;4654565;30;20061;-83
2021/03/05 10:47:18;;;;;;;4.07;0.60;;;8.90;42.00;;;;;;4646623;30;20038;-81
2021/03/05 10:49:46;;;;;;;9.98;3.10;;;9.10;43.20;;;;;;4617304;30;20046;-82
2021/03/05 10:52:16;;;;;;;5.20;1.40;;;9.20;43.50;;;;;;4630618;30;20072;-82
2021/03/05 10:54:44;;;;;;;3.15;0.40;;;9.50;42.60;;;;;;4611141;30;20047;-83
2021/03/05 10:57:15;;;;;;;2.08;0.70;;;9.70;42.50;;;;;;4633233;30;20050;-83
2021/03/05 10:59:43;;;;;;;1.73;0.20;;;9.90;39.10;;;;;;4617806;30;20049;-83
2021/03/05 11:02:10;;;;;;;3.20;0.40;;;10.10;37.50;;;;;;4616063;30;20071;-82
2021/03/05 11:04:37;;;;;;;1.73;0.40;;;10.10;37.80;;;;;;4632406;30;20046;-83
2021/03/05 11:07:04;;;;;;;3.33;0.30;;;10.20;37.10;;;;;;4618960;30;20041;-82
2021/03/05 11:09:31;;;;;;;2.78;0.20;;;10.40;37.70;;;;;;4630074;30;20046;-83
2021/03/05 11:11:59;;;;;;;1.10;0.30;;;10.70;37.70;;;;;;4619009;30;20050;-82
2021/03/05 11:14:27;;;;;;;2.28;0.30;;;11.00;38.00;;;;;;4632097;30;20050;-82
2021/03/05 11:16:54;;;;;;;3.05;0.32;;;11.30;35.40;;;;;;4645230;30;20046;-83
2021/03/05 11:19:22;;;;;;;2.88;0.30;;;11.40;34.30;;;;;;4617796;30;20059;-83
2021/03/05 11:21:49;;;;;;;2.78;0.45;;;11.50;34.80;;;;;;4618660;30;20051;-83
2021/03/05 11:24:16;;;;;;;1.52;0.40;;;11.60;33.00;;;;;;4633864;30;20042;-83
2021/03/05 11:26:43;;;;;;;2.70;0.50;;;11.60;34.20;;;;;;4618065;30;20049;-83
2021/03/05 11:29:10;;;;;;;1.98;0.30;;;11.70;33.90;;;;;;4660895;30;20050;-84
2021/03/05 11:31:36;;;;;;;1.52;0.30;;;11.90;33.90;;;;;;4632194;30;20059;-84
2021/03/05 11:34:03;;;;;;;3.38;0.40;;;12.10;32.00;;;;;;4615880;30;20107;-84
2021/03/05 11:36:29;;;;;;;1.38;0.30;;;12.20;30.80;;;;;;4645674;30;20057;-83
2021/03/05 11:38:56;;;;;;;0.80;0.20;;;12.30;31.70;;;;;;4659773;30;20400;-84
2021/03/05 11:41:24;;;;;;;2.70;0.30;;;12.50;31.40;;;;;;4632475;30;20066;-83
2021/03/05 11:43:52;;;;;;;2.33;0.40;;;12.80;31.80;;;;;;4646501;30;20061;-83
2021/03/05 11:46:21;;;;;;;1.85;0.20;;;13.20;31.60;;;;;;4618318;30;20043;-84
2021/03/05 11:48:49;;;;;;;2.53;0.30;;;13.30;29.00;;;;;;4632066;30;20392;-83
2021/03/05 11:51:17;;;;;;;1.48;0.20;;;13.30;28.60;;;;;;4646414;30;20046;-79
2021/03/05 11:53:44;;;;;;;0.98;0.40;;;13.10;28.70;;;;;;4617065;30;20066;-83
2021/03/05 11:56:11;;;;;;;1.08;0.20;;;13.10;29.60;;;;;;4632260;30;20408;-82
2021/03/05 11:58:38;;;;;;;1.00;0.10;;;13.10;28.80;;;;;;4622277;30;20074;-83
2021/03/05 12:01:05;;;;;;;2.42;0.20;;;13.00;29.00;;;;;;4616309;30;20050;-80
2021/03/05 12:03:32;;;;;;;4.47;0.40;;;13.20;29.90;;;;;;4620824;30;20073;-83
2021/03/05 12:05:59;;;;;;;4.30;0.68;;;13.30;28.90;;;;;;4611657;30;20042;-83
2021/03/05 12:08:27;;;;;;;1.77;0.25;;;13.40;29.10;;;;;;4616970;30;20377;-83
2021/03/05 12:10:54;;;;;;;1.33;0.30;;;13.50;29.10;;;;;;4610415;30;20069;-83
2021/03/05 12:13:20;;;;;;;0.80;0.20;;;13.70;29.10;;;;;;4644622;30;20053;-83
2021/03/05 12:15:47;;;;;;;2.42;0.28;;;13.80;28.90;;;;;;4603734;30;20058;-83
2021/03/05 12:18:14;;;;;;;1.90;0.20;;;13.90;29.10;;;;;;4643502;30;20069;-83
2021/03/05 12:20:41;;;;;;;1.10;0.20;;;13.90;28.70;;;;;;4630874;30;20523;-83
2021/03/05 12:23:08;;;;;;;1.83;0.30;;;14.10;29.50;;;;;;4643417;30;20061;-84
2021/03/05 12:25:37;;;;;;;2.17;0.43;;;14.40;28.60;;;;;;4631084;30;20066;-83
2021/03/05 12:28:04;;;;;;;0.75;0.20;;;14.50;27.90;;;;;;4633959;30;20065;-82
2021/03/05 12:30:30;;;;;;;1.45;0.20;;;14.60;28.00;;;;;;4594319;30;20049;-81
2021/03/05 12:32:57;;;;;;;0.30;0.15;;;14.70;28.80;;;;;;4633891;30;20065;-81
2021/03/05 12:35:24;;;;;;;3.25;0.20;;;15.00;29.40;;;;;;4631893;30;20058;-81
2021/03/05 12:37:51;;;;;;;1.48;0.20;;;15.50;27.60;;;;;;4605599;30;20042;-83
2021/03/05 12:40:19;;;;;;;1.08;0.20;;;15.60;26.70;;;;;;4616726;30;20046;-83
2021/03/05 12:42:46;;;;;;;0.45;0.10;;;15.70;25.80;;;;;;4630172;30;20216;-82
2021/03/05 12:45:14;;;;;;;1.27;0.20;;;15.70;26.90;;;;;;4644196;30;20533;-82
2021/03/05 12:47:40;;;;;;;0.98;0.25;;;15.90;26.60;;;;;;4628782;30;20053;-82
2021/03/05 12:50:08;;;;;;;2.03;0.38;;;16.20;26.90;;;;;;4615713;30;20069;-83
2021/03/05 12:52:35;;;;;;;4.43;0.38;;;16.30;26.60;;;;;;4616058;30;20847;-84
2021/03/05 12:55:02;;;;;;;2.58;0.20;;;16.40;26.50;;;;;;4629993;30;20066;-83
2021/03/05 12:57:29;;;;;;;1.48;0.20;;;16.50;26.80;;;;;;4602063;30;20058;-83
2021/03/05 12:59:56;;;;;;;1.20;0.30;;;16.30;26.80;;;;;;4603237;30;20051;-83
2021/03/05 13:02:22;;;;;;;1.50;0.20;;;16.10;26.00;;;;;;4608469;30;20057;-82